Terminal Aerodrome Forecast
Issued by NWS

Home | Current Version | Previous Version | Text Only | Print | Product List | Glossary On
Versions: 1 2 3 4 5 6 7 8 9 10 11 12 13
000
FTUS43 KOAX 221900 AAA
TAFBFF
TAF AMD
KBFF 221955Z 2220/2318 16014G22KT P6SM VCTS SCT050CB OVC090
      TEMPO 2220/2222 5SM -TSRA BKN050CB
     FM230300 15010KT P6SM BKN100
     FM230900 30006KT P6SM BKN150=

USA.gov is the U.S. government's official web portal to all federal, state and local government web resources and services.